Time;durP1;ratioP1;P1;durP2;ratioP2;P2;SDS_P1;SDS_P2;PMS_P1;PMS_P2;Temp;Humidity;BMP_temperature;BMP_pressure;BME280_temperature;BME280_humidity;BME280_pressure;Samples;Min_cycle;Max_cycle;Signal;HPM_P1;HPM_P2
2022/01/18 00:01:45;;;;;;;;;4.50;2.75;;;;;4.27;73.92;103434.16;5020285;28;45531;-85
2022/01/18 00:04:11;;;;;;;;;7.75;6.75;;;;;4.74;74.65;103512.53;5007516;28;45584;-84
2022/01/18 00:06:39;;;;;;;;;8.00;8.00;;;;;4.10;73.77;103412.19;5017271;28;48611;-84
2022/01/18 00:09:05;;;;;;;;;9.25;4.75;;;;;4.42;73.62;103469.66;5006201;28;45360;-85
2022/01/18 00:11:38;;;;;;;;;7.50;4.50;;;;;4.10;73.91;103409.59;5028727;28;45387;-86
2022/01/18 00:14:12;;;;;;;;;4.75;4.75;;;;;3.86;73.63;103370.81;5028747;28;45407;-83
2022/01/18 00:16:49;;;;;;;;;6.00;4.00;;;;;4.13;74.13;103404.69;5005936;28;46136;-84
2022/01/18 00:19:15;;;;;;;;;8.25;3.25;;;;;4.67;73.93;103511.19;5032889;28;45486;-84
2022/01/18 00:24:15;;;;;;;;;8.00;5.50;;;;;4.45;74.03;103482.81;5025565;28;45445;-84
2022/01/18 00:26:41;;;;;;;;;9.50;5.25;;;;;4.67;74.36;103529.25;5022636;28;46223;-84
2022/01/18 00:29:10;;;;;;;;;6.00;4.00;;;;;4.33;74.05;103459.53;5015075;28;45375;-84
2022/01/18 00:34:27;;;;;;;;;2.75;2.75;;;;;3.82;73.78;103368.78;5026831;28;45663;-84
2022/01/18 00:36:58;;;;;;;;;5.00;4.00;;;;;4.64;73.85;103517.75;5025706;28;46869;-86
2022/01/18 00:39:25;;;;;;;;;6.00;5.25;;;;;4.24;74.49;103430.41;5028406;28;45382;-84
2022/01/18 00:41:51;;;;;;;;;11.75;7.75;;;;;4.08;74.65;103411.19;5018082;28;45503;-87
2022/01/18 00:44:16;;;;;;;;;5.25;4.00;;;;;4.16;74.13;103423.00;5047172;28;45414;-86
2022/01/18 00:46:42;;;;;;;;;11.00;6.00;;;;;4.63;73.66;103519.44;5024275;28;47240;-86
2022/01/18 00:49:10;;;;;;;;;5.25;4.25;;;;;3.97;73.99;103386.22;5038259;28;45411;-84
2022/01/18 00:51:38;;;;;;;;;3.00;3.00;;;;;3.72;73.79;103353.38;5034364;28;45706;-86
2022/01/18 00:54:06;;;;;;;;;5.00;5.00;;;;;3.76;73.78;103373.44;5034140;28;45065;-87
2022/01/18 00:56:39;;;;;;;;;8.75;6.00;;;;;3.34;73.79;103306.63;5027463;28;46406;-87
2022/01/18 00:59:04;;;;;;;;;7.00;6.50;;;;;4.07;73.96;103424.84;5049056;28;45883;-86
2022/01/18 01:01:31;;;;;;;;;9.00;4.50;;;;;3.30;73.86;103294.31;5031329;28;45415;-86
2022/01/18 01:04:01;;;;;;;;;6.75;5.00;;;;;4.09;73.04;103435.25;5032584;28;44848;-85
2022/01/18 01:06:27;;;;;;;;;5.25;5.25;;;;;3.28;73.51;103301.91;5031464;28;45161;-84
2022/01/18 01:08:53;;;;;;;;;6.50;4.25;;;;;3.38;73.90;103329.31;5049975;28;45587;-85
2022/01/18 01:11:20;;;;;;;;;7.50;4.50;;;;;3.54;73.82;103380.38;5012633;28;45356;-86
2022/01/18 01:13:48;;;;;;;;;3.50;3.00;;;;;3.94;73.97;103443.59;5014552;28;44910;-85
2022/01/18 01:19:40;;;;;;;;;2.25;2.00;;;;;3.22;73.67;103324.56;5020508;28;45310;-85
2022/01/18 01:33:31;;;;;;;;;2.00;1.75;;;;;3.80;73.89;103460.53;5033790;28;45333;-85
2022/01/18 01:36:08;;;;;;;;;5.00;4.00;;;;;3.14;74.03;103352.28;5049710;28;44921;-85
2022/01/18 01:44:19;;;;;;;;;3.00;3.00;;;;;3.06;73.92;103331.84;5028552;28;45189;-85
2022/01/18 01:46:45;;;;;;;;;3.00;2.00;;;;;3.19;73.99;103362.06;5027915;28;45507;-85
2022/01/18 01:49:13;;;;;;;;;2.50;1.50;;;;;3.39;74.24;103395.47;5059492;28;46619;-85
2022/01/18 01:51:40;;;;;;;;;2.00;1.50;;;;;4.02;74.08;103514.69;5025824;28;45377;-84
2022/01/18 01:54:08;;;;;;;;;3.00;1.25;;;;;3.39;74.47;103392.91;5023284;28;45399;-85
2022/01/18 01:56:34;;;;;;;;;4.00;3.00;;;;;3.08;74.80;103336.34;5023255;28;44867;-85
2022/01/18 01:59:02;;;;;;;;;2.00;2.00;;;;;2.90;74.58;103317.72;5021605;28;46318;-85
2022/01/18 02:01:27;;;;;;;;;1.00;1.00;;;;;3.84;74.66;103501.25;5034490;28;45504;-87
2022/01/18 02:03:53;;;;;;;;;4.75;2.00;;;;;3.33;74.80;103410.44;5029013;28;45525;-85
2022/01/18 02:06:21;;;;;;;;;2.25;0.50;;;;;3.88;74.81;103504.94;5044396;28;45423;-85
2022/01/18 02:08:46;;;;;;;;;0.25;0.25;;;;;3.34;74.30;103411.34;5007142;28;47331;-84
2022/01/18 02:11:13;;;;;;;;;2.50;2.00;;;;;3.89;74.48;103499.03;5004066;28;45855;-84
2022/01/18 02:13:39;;;;;;;;;1.25;1.25;;;;;3.46;74.99;103432.03;4994130;28;45496;-84
2022/01/18 02:24:03;;;;;;;;;1.00;1.00;;;;;3.89;75.13;103506.78;5033281;28;45352;-85
2022/01/18 02:26:29;;;;;;;;;0.00;0.00;;;;;3.89;75.24;103501.63;5006778;28;45392;-84
2022/01/18 02:29:00;;;;;;;;;0.00;0.00;;;;;3.92;75.38;103501.88;5009176;28;46388;-84
2022/01/18 02:31:26;;;;;;;;;1.00;1.00;;;;;3.21;74.58;103389.72;5023681;28;45358;-84
2022/01/18 02:33:51;;;;;;;;;0.00;0.00;;;;;3.70;75.75;103473.47;5024621;28;45418;-84
2022/01/18 02:36:17;;;;;;;;;2.00;2.00;;;;;3.88;75.28;103484.34;5028597;28;45376;-86
2022/01/18 02:38:42;;;;;;;;;0.25;0.25;;;;;3.50;74.76;103421.22;5048924;28;47161;-86
2022/01/18 02:41:08;;;;;;;;;3.25;3.25;;;;;2.79;74.99;103312.59;5022573;28;45362;-85
2022/01/18 02:43:50;;;;;;;;;0.50;0.50;;;;;2.82;75.43;103306.78;5037367;28;45376;-86
2022/01/18 02:46:17;;;;;;;;;1.50;1.00;;;;;2.83;74.65;103285.44;5052978;28;45218;-86
2022/01/18 02:49:02;;;;;;;;;0.50;0.50;;;;;3.57;75.82;103420.00;5019018;28;46979;-85
2022/01/18 02:51:44;;;;;;;;;0.00;0.00;;;;;3.12;75.14;103343.53;5040346;28;45140;-86
2022/01/18 02:54:25;;;;;;;;;3.00;0.50;;;;;3.10;74.84;103337.38;5040002;28;45478;-85
2022/01/18 02:56:58;;;;;;;;;0.00;0.00;;;;;3.78;75.49;103444.03;5040388;28;45585;-85
2022/01/18 03:05:15;;;;;;;;;0.00;0.00;;;;;3.78;74.89;103390.84;5045288;28;44737;-85
2022/01/18 03:07:42;;;;;;;;;1.00;0.75;;;;;3.68;74.78;103365.13;5055991;28;45111;-85
2022/01/18 03:10:10;;;;;;;;;1.00;1.00;;;;;3.06;74.54;103258.09;5028674;28;47418;-85
2022/01/18 03:12:36;;;;;;;;;1.50;0.75;;;;;3.61;74.90;103349.97;5029784;28;45618;-85
2022/01/18 03:15:01;;;;;;;;;0.00;0.00;;;;;3.99;75.06;103406.22;5035256;28;45387;-85
2022/01/18 03:17:27;;;;;;;;;1.00;0.00;;;;;3.51;74.13;103296.78;5035018;28;45612;-84
2022/01/18 03:19:52;;;;;;;;;1.00;1.00;;;;;4.39;74.40;103452.28;5037266;28;47048;-85
2022/01/18 03:22:18;;;;;;;;;2.00;1.00;;;;;4.37;74.76;103440.91;5037335;28;44637;-84
2022/01/18 03:25:26;;;;;;;;;2.50;1.00;;;;;3.85;74.64;103338.09;5036359;28;45626;-84
2022/01/18 03:30:19;;;;;;;;;0.25;0.25;;;;;3.65;74.80;103300.47;5041209;28;45410;-84
2022/01/18 03:32:44;;;;;;;;;1.50;0.75;;;;;4.07;74.01;103362.09;5022428;28;45491;-84
2022/01/18 03:35:10;;;;;;;;;0.75;0.75;;;;;3.61;74.62;103289.00;5016281;28;45531;-85
2022/01/18 03:37:36;;;;;;;;;0.75;0.75;;;;;4.52;74.09;103451.53;4999976;28;45576;-85
2022/01/18 03:40:04;;;;;;;;;1.75;0.00;;;;;3.90;74.20;103329.06;5000533;28;46997;-84
2022/01/18 03:44:57;;;;;;;;;1.75;0.00;;;;;4.22;74.17;103383.88;4999338;28;45790;-84
2022/01/18 03:47:23;;;;;;;;;0.00;0.00;;;;;4.52;74.27;103442.88;4997528;28;44963;-84
2022/01/18 03:49:48;;;;;;;;;1.00;1.00;;;;;4.52;74.33;103432.56;5001320;28;46132;-86
2022/01/18 03:52:14;;;;;;;;;3.00;1.25;;;;;4.20;73.83;103390.63;5003580;28;45509;-84
2022/01/18 03:54:43;;;;;;;;;1.50;1.00;;;;;4.40;74.18;103432.50;5022081;28;45669;-84
2022/01/18 03:57:10;;;;;;;;;1.50;0.00;;;;;3.90;73.90;103334.22;5003960;28;44801;-85
2022/01/18 03:59:36;;;;;;;;;0.25;0.25;;;;;4.51;73.95;103430.78;4994503;28;47442;-86
2022/01/18 04:02:02;;;;;;;;;0.00;0.00;;;;;4.33;74.16;103432.81;4980809;28;45546;-85
2022/01/18 04:04:27;;;;;;;;;1.00;1.00;;;;;3.88;73.94;103361.53;4972826;28;45502;-85
2022/01/18 04:06:53;;;;;;;;;0.00;0.00;;;;;3.53;74.04;103288.41;4970280;28;45465;-85
2022/01/18 04:09:20;;;;;;;;;0.75;0.75;;;;;3.68;74.07;103332.50;4983395;28;48819;-85
2022/01/18 04:11:45;;;;;;;;;1.75;1.00;;;;;3.66;74.72;103336.66;4981650;28;45306;-84
2022/01/18 04:14:11;;;;;;;;;1.00;1.00;;;;;3.76;74.38;103348.56;4996607;28;45278;-85
2022/01/18 04:16:44;;;;;;;;;2.00;1.00;;;;;3.95;74.20;103346.56;4973537;28;45316;-85
2022/01/18 04:27:23;;;;;;;;;1.00;1.00;;;;;4.03;74.92;103400.50;4991651;28;44791;-84
2022/01/18 04:29:50;;;;;;;;;4.50;0.25;;;;;3.33;74.69;103266.22;5012674;28;46893;-85
2022/01/18 04:32:16;;;;;;;;;1.00;1.00;;;;;4.39;73.97;103444.53;5016627;28;45418;-85
2022/01/18 04:34:41;;;;;;;;;1.00;1.00;;;;;3.24;74.63;103284.41;5016458;28;44995;-85
2022/01/18 04:37:07;;;;;;;;;0.00;0.00;;;;;3.42;74.45;103325.28;5025282;28;45555;-85
2022/01/18 04:39:39;;;;;;;;;0.00;0.00;;;;;3.80;75.21;103386.69;5017645;28;45883;-86
2022/01/18 04:50:25;;;;;;;;;0.00;0.00;;;;;3.89;75.01;103406.25;5027372;28;45378;-84
2022/01/18 04:52:50;;;;;;;;;1.00;1.00;;;;;3.20;75.08;103279.81;5026220;28;45345;-84
2022/01/18 04:55:18;;;;;;;;;1.00;0.00;;;;;3.07;75.10;103264.16;5026899;28;45428;-84
2022/01/18 04:57:53;;;;;;;;;1.00;1.00;;;;;3.88;75.04;103415.66;5029807;28;45584;-83
2022/01/18 05:00:20;;;;;;;;;1.50;1.50;;;;;2.50;75.05;103218.50;5037127;28;45376;-85
2022/01/18 05:02:47;;;;;;;;;0.00;0.00;;;;;3.45;75.60;103387.34;5034287;28;44896;-84
2022/01/18 05:05:23;;;;;;;;;0.00;0.00;;;;;3.25;74.69;103360.00;5033667;28;45276;-84
2022/01/18 05:07:52;;;;;;;;;1.00;1.00;;;;;3.16;75.17;103362.72;5031491;28;45365;-84
2022/01/18 05:10:20;;;;;;;;;0.00;0.00;;;;;3.59;75.44;103421.06;5033822;28;46166;-84
2022/01/18 05:12:49;;;;;;;;;2.00;0.75;;;;;3.85;75.60;103440.28;5030656;28;45341;-85
2022/01/18 05:15:53;;;;;;;;;0.50;0.50;;;;;3.48;74.97;103371.22;5030647;28;45709;-86
2022/01/18 05:23:34;;;;;;;;;1.75;1.50;;;;;3.42;75.20;103400.88;5027266;28;45479;-84
2022/01/18 05:25:59;;;;;;;;;1.75;1.00;;;;;3.75;75.55;103444.72;5011902;28;45411;-83
2022/01/18 05:28:25;;;;;;;;;0.50;0.00;;;;;2.92;74.93;103296.47;5025546;28;45731;-85
2022/01/18 05:30:50;;;;;;;;;1.25;1.00;;;;;3.07;74.79;103315.63;5021134;28;48042;-85
2022/01/18 05:33:18;;;;;;;;;1.00;0.00;;;;;3.48;75.27;103382.44;5022889;28;44987;-83
2022/01/18 05:35:44;;;;;;;;;2.00;1.00;;;;;3.50;74.60;103365.44;5015131;28;45465;-84
2022/01/18 05:38:09;;;;;;;;;3.00;2.00;;;;;2.76;75.37;103248.00;5026028;28;45979;-85
2022/01/18 05:40:35;;;;;;;;;1.00;1.00;;;;;3.08;74.90;103317.41;5028658;28;48229;-85
2022/01/18 05:43:00;;;;;;;;;4.00;2.00;;;;;3.11;75.48;103305.72;5013697;28;45501;-84
2022/01/18 05:45:25;;;;;;;;;1.00;1.00;;;;;2.92;75.56;103273.31;5027573;28;45549;-84
2022/01/18 05:47:51;;;;;;;;;0.75;0.50;;;;;3.55;75.68;103392.47;5018711;28;45535;-85
2022/01/18 05:50:16;;;;;;;;;1.75;1.75;;;;;3.15;75.06;103318.03;5021461;28;47421;-85
2022/01/18 05:52:42;;;;;;;;;1.25;1.25;;;;;3.77;75.39;103419.94;5009758;28;45398;-86
2022/01/18 05:55:09;;;;;;;;;1.00;1.00;;;;;3.16;75.30;103329.25;5021798;28;45495;-85
2022/01/18 05:57:35;;;;;;;;;3.50;1.00;;;;;3.77;75.55;103422.53;5017554;28;45425;-84
2022/01/18 06:00:04;;;;;;;;;1.25;1.25;;;;;3.78;75.31;103419.19;5026632;28;48266;-82
2022/01/18 06:02:43;;;;;;;;;1.00;1.00;;;;;3.46;74.65;103347.06;5018387;28;45423;-79
2022/01/18 06:07:54;;;;;;;;;0.25;0.00;;;;;3.84;74.94;103417.88;5016972;28;45474;-78
2022/01/18 06:10:20;;;;;;;;;1.00;1.00;;;;;3.83;75.04;103416.06;5006961;28;45786;-79
2022/01/18 06:12:45;;;;;;;;;1.25;0.75;;;;;3.59;74.70;103387.56;5018387;28;45521;-81
2022/01/18 06:15:11;;;;;;;;;0.00;0.00;;;;;3.29;74.58;103328.56;5017164;28;45472;-79
2022/01/18 06:17:38;;;;;;;;;1.00;1.00;;;;;3.67;74.13;103404.53;5019811;28;45458;-80
2022/01/18 06:20:04;;;;;;;;;2.50;2.25;;;;;3.78;74.42;103406.31;5019906;28;46973;-78
2022/01/18 06:22:30;;;;;;;;;0.50;0.25;;;;;3.04;73.91;103275.97;5018119;28;45648;-79
2022/01/18 06:24:55;;;;;;;;;1.25;1.25;;;;;3.97;74.31;103430.94;5018146;28;45328;-79
2022/01/18 06:27:20;;;;;;;;;3.00;2.00;;;;;3.91;74.35;103431.38;5020998;28;45426;-79
2022/01/18 06:29:46;;;;;;;;;1.25;1.00;;;;;3.62;74.44;103387.81;5024136;28;45448;-79
2022/01/18 06:32:11;;;;;;;;;2.00;2.00;;;;;3.66;73.74;103395.91;5027739;28;45438;-82
2022/01/18 06:34:37;;;;;;;;;1.75;1.00;;;;;3.77;74.32;103430.25;5022769;28;45478;-79
2022/01/18 06:37:02;;;;;;;;;3.00;1.00;;;;;3.73;73.76;103420.47;5014256;28;45416;-80
2022/01/18 06:39:28;;;;;;;;;1.00;1.00;;;;;3.19;74.00;103326.94;5020464;28;45533;-80
2022/01/18 06:41:54;;;;;;;;;1.00;1.00;;;;;3.84;74.46;103435.91;5016701;28;45707;-77
2022/01/18 06:44:19;;;;;;;;;2.00;1.00;;;;;3.63;73.70;103397.34;5017802;28;45450;-79
2022/01/18 06:46:45;;;;;;;;;3.00;1.00;;;;;3.71;74.09;103427.22;5011152;28;45632;-78
2022/01/18 06:49:10;;;;;;;;;2.00;2.00;;;;;3.80;74.53;103445.97;5021182;28;45455;-78
2022/01/18 06:51:38;;;;;;;;;2.00;2.00;;;;;3.13;74.75;103311.84;5022398;28;45384;-79
2022/01/18 06:54:04;;;;;;;;;0.75;0.75;;;;;3.75;74.74;103418.03;5019770;28;45325;-78
2022/01/18 06:56:29;;;;;;;;;1.00;1.00;;;;;3.64;74.12;103409.44;5019555;28;45588;-78
2022/01/18 06:58:55;;;;;;;;;1.00;1.00;;;;;3.62;74.28;103393.84;5022159;28;45599;-78
2022/01/18 07:01:21;;;;;;;;;1.00;1.00;;;;;3.59;73.93;103377.25;5022515;28;45536;-78
2022/01/18 07:03:50;;;;;;;;;1.00;1.00;;;;;3.90;73.89;103423.50;5021725;28;45636;-77
2022/01/18 07:06:16;;;;;;;;;1.50;1.50;;;;;3.84;74.15;103420.44;5018920;28;45602;-81
2022/01/18 07:08:41;;;;;;;;;0.00;0.00;;;;;3.35;74.45;103362.53;5020691;28;45367;-81
2022/01/18 07:11:08;;;;;;;;;4.00;1.75;;;;;3.73;75.11;103433.38;5016965;28;45285;-78
2022/01/18 07:13:34;;;;;;;;;2.00;1.00;;;;;3.59;74.46;103421.06;5021293;28;45464;-79
2022/01/18 07:16:00;;;;;;;;;1.25;1.25;;;;;3.73;74.67;103441.09;5010498;28;45818;-79
2022/01/18 07:18:26;;;;;;;;;0.00;0.00;;;;;3.80;74.51;103422.75;5016827;28;45512;-75
2022/01/18 07:20:53;;;;;;;;;3.25;1.50;;;;;3.44;74.91;103356.31;5012671;28;45484;-80
2022/01/18 07:23:18;;;;;;;;;7.00;2.00;;;;;3.27;74.80;103322.38;5016508;28;45476;-83
2022/01/18 07:25:47;;;;;;;;;2.00;0.75;;;;;3.46;74.98;103370.22;5012323;28;45386;-80
2022/01/18 07:28:17;;;;;;;;;0.50;0.50;;;;;3.72;74.71;103394.59;5018919;28;45566;-80
2022/01/18 07:30:42;;;;;;;;;1.00;1.00;;;;;3.96;74.08;103420.50;5020310;28;45588;-81
2022/01/18 07:33:08;;;;;;;;;2.75;2.00;;;;;3.35;74.09;103316.19;5017759;28;45565;-82
2022/01/18 07:35:35;;;;;;;;;1.50;1.50;;;;;3.82;73.39;103397.13;5013808;28;45403;-81
2022/01/18 07:38:02;;;;;;;;;1.50;0.00;;;;;3.70;73.96;103394.47;5011444;28;46972;-80
2022/01/18 07:40:30;;;;;;;;;1.00;1.00;;;;;3.84;73.69;103416.19;5005593;28;45449;-82
2022/01/18 07:42:57;;;;;;;;;0.00;0.00;;;;;3.82;74.15;103416.84;5004791;28;45457;-81
2022/01/18 07:45:23;;;;;;;;;1.00;1.00;;;;;3.33;74.27;103321.97;5021329;28;45823;-81
2022/01/18 07:47:49;;;;;;;;;2.00;2.00;;;;;3.72;73.70;103376.56;5010903;28;45542;-81
2022/01/18 07:50:15;;;;;;;;;2.25;2.25;;;;;3.97;74.00;103410.31;5014480;28;45422;-80
2022/01/18 07:52:41;;;;;;;;;1.00;0.00;;;;;3.85;74.07;103384.47;5004846;28;45724;-79
2022/01/18 07:55:07;;;;;;;;;1.00;1.00;;;;;3.91;74.52;103395.28;5017315;28;45337;-80
2022/01/18 07:57:32;;;;;;;;;3.00;0.75;;;;;4.13;74.04;103415.00;5008887;28;45470;-80
2022/01/18 07:59:58;;;;;;;;;2.00;2.00;;;;;3.75;73.79;103336.47;5010092;28;45372;-81
2022/01/18 08:02:24;;;;;;;;;1.25;1.25;;;;;3.73;73.27;103326.81;5017407;28;45478;-80
2022/01/18 08:04:50;;;;;;;;;1.00;1.00;;;;;3.78;73.40;103320.34;5017542;28;45373;-81
2022/01/18 08:07:16;;;;;;;;;2.25;1.50;;;;;4.33;73.34;103401.88;5004886;28;47331;-80
2022/01/18 08:09:41;;;;;;;;;1.00;1.00;;;;;4.29;73.48;103406.78;5010398;28;45726;-78
2022/01/18 08:12:07;;;;;;;;;4.50;1.00;;;;;4.37;74.01;103398.75;5015996;28;45753;-78
2022/01/18 08:14:34;;;;;;;;;5.00;3.00;;;;;4.36;72.99;103392.69;5031092;28;44905;-79
2022/01/18 08:17:00;;;;;;;;;3.50;3.50;;;;;4.12;73.39;103340.13;5020759;28;45633;-79
2022/01/18 08:19:31;;;;;;;;;2.00;1.00;;;;;3.86;73.36;103300.34;5015909;28;46223;-79
2022/01/18 08:21:57;;;;;;;;;2.00;2.00;;;;;4.42;73.11;103385.44;5014711;28;45613;-80
2022/01/18 08:24:24;;;;;;;;;0.75;0.75;;;;;3.98;72.89;103292.66;5009567;28;45448;-80
2022/01/18 08:26:49;;;;;;;;;1.00;1.00;;;;;4.13;73.33;103313.53;5012740;28;45538;-80
2022/01/18 08:29:15;;;;;;;;;0.25;0.25;;;;;3.68;73.82;103226.00;5018922;28;45460;-83
2022/01/18 08:31:41;;;;;;;;;1.50;1.50;;;;;4.73;73.17;103404.94;5018551;28;45587;-80
2022/01/18 08:34:07;;;;;;;;;3.25;3.25;;;;;4.69;73.49;103403.78;5012031;28;45514;-79
2022/01/18 08:36:32;;;;;;;;;1.75;1.75;;;;;4.74;73.19;103423.88;5012853;28;47706;-80
2022/01/18 08:38:57;;;;;;;;;0.75;0.75;;;;;4.63;73.73;103392.13;5006503;28;45761;-80
2022/01/18 08:41:23;;;;;;;;;1.50;1.50;;;;;4.39;72.92;103345.59;5014600;28;45535;-80
2022/01/18 08:43:49;;;;;;;;;1.75;1.75;;;;;4.20;73.69;103309.78;5019585;28;45676;-81
2022/01/18 08:46:16;;;;;;;;;2.25;2.25;;;;;4.78;72.95;103408.75;5018625;28;46758;-82
2022/01/18 08:48:42;;;;;;;;;2.25;2.25;;;;;4.40;73.22;103350.88;5016806;28;45646;-80
2022/01/18 08:51:07;;;;;;;;;3.00;2.00;;;;;4.76;73.21;103405.16;5014394;28;45543;-78
2022/01/18 08:53:33;;;;;;;;;1.25;1.00;;;;;4.59;73.51;103374.59;5016542;28;45451;-80
2022/01/18 08:55:58;;;;;;;;;2.75;1.50;;;;;4.44;73.53;103349.41;5019032;28;45587;-80
2022/01/18 08:58:23;;;;;;;;;4.00;3.00;;;;;4.11;73.34;103292.84;5012921;28;45506;-80
2022/01/18 09:04:23;;;;;;;;;0.00;0.00;;;;;3.97;73.63;103244.44;4973408;28;45633;-80
2022/01/18 09:07:40;;;;;;;;;3.00;1.00;;;;;4.83;73.13;103398.78;5017898;28;45535;-80
2022/01/18 09:10:08;;;;;;;;;2.00;2.00;;;;;4.26;73.85;103272.44;4996628;28;45448;-79
2022/01/18 09:12:34;;;;;;;;;2.50;1.25;;;;;4.67;73.64;103319.31;5012205;28;45387;-80
2022/01/18 09:15:01;;;;;;;;;0.50;0.50;;;;;5.32;73.60;103408.38;5019326;28;45344;-79
2022/01/18 09:17:45;;;;;;;;;3.50;3.00;;;;;5.54;73.26;103409.94;5014643;28;45836;-81
2022/01/18 09:20:12;;;;;;;;;3.00;2.25;;;;;5.06;72.32;103316.97;5015423;28;45435;-79
2022/01/18 09:22:41;;;;;;;;;2.00;2.00;;;;;5.69;72.57;103403.31;5011833;28;45471;-80
2022/01/18 09:25:16;;;;;;;;;2.75;2.75;;;;;5.37;72.36;103347.63;5019446;28;45461;-79
2022/01/18 09:28:44;;;;;;;;;2.00;1.50;;;;;5.90;72.49;103412.47;5015039;28;45391;-81
2022/01/18 09:31:10;;;;;;;;;2.25;1.50;;;;;5.99;72.08;103422.56;4909053;28;45484;-78
2022/01/18 09:34:01;;;;;;;;;3.00;3.00;;;;;6.04;72.21;103403.16;4917827;28;45430;-82
2022/01/18 09:36:27;;;;;;;;;0.50;0.50;;;;;5.72;72.20;103340.59;4916348;28;45391;-79
2022/01/18 09:38:53;;;;;;;;;2.75;2.75;;;;;6.18;72.56;103407.59;4918262;28;46024;-79
2022/01/18 09:45:08;;;;;;;;;1.00;1.00;;;;;5.73;71.96;103293.28;4866007;29;44829;-79
2022/01/18 09:48:21;;;;;;;;;1.75;1.75;;;;;6.41;71.46;103381.53;4850919;29;45543;-79
2022/01/18 09:50:47;;;;;;;;;1.75;1.75;;;;;6.32;71.63;103354.25;4856855;29;45571;-81
2022/01/18 09:53:13;;;;;;;;;3.00;1.75;;;;;5.92;71.63;103251.50;4868015;29;45423;-82
2022/01/18 09:59:13;;;;;;;;;2.00;1.75;;;;;6.63;70.64;103297.56;4973241;28;45573;-82
2022/01/18 10:01:38;;;;;;;;;2.25;1.50;;;;;7.32;69.95;103411.69;4968847;28;45602;-82
2022/01/18 10:04:17;;;;;;;;;4.75;3.25;;;;;7.25;70.33;103412.06;5023559;28;45497;-82
2022/01/18 10:10:55;;;;;;;;;3.00;2.00;;;;;7.20;70.85;103396.25;4913898;28;45762;-86
2022/01/18 10:13:25;;;;;;;;;3.00;3.00;;;;;6.86;70.68;103345.69;4942187;28;45623;-79
2022/01/18 10:19:51;;;;;;;;;1.00;1.00;;;;;7.44;70.82;103396.03;4944347;28;44815;-81
2022/01/18 10:23:09;;;;;;;;;3.00;1.00;;;;;7.49;70.94;103389.44;4959887;28;45395;-83
2022/01/18 10:26:37;;;;;;;;;3.00;1.50;;;;;7.56;71.03;103385.53;5036862;28;47228;-80
2022/01/18 10:29:06;;;;;;;;;2.25;1.75;;;;;7.12;71.06;103294.69;5030888;28;45529;-86
2022/01/18 10:31:42;;;;;;;;;3.00;1.25;;;;;6.58;70.38;103180.78;5038076;28;45265;-82
2022/01/18 10:37:44;;;;;;;;;2.25;2.25;;;;;7.05;70.37;103214.81;5028652;28;45753;-84
2022/01/18 10:40:42;;;;;;;;;1.00;1.00;;;;;8.06;70.11;103365.28;5032729;28;45539;-82
2022/01/18 10:57:06;;;;;;;;;0.75;0.75;;;;;8.34;69.35;103334.13;4985926;28;45420;-81
2022/01/18 10:59:33;;;;;;;;;1.00;1.00;;;;;7.42;69.12;103166.97;4987498;28;45396;-80
2022/01/18 11:02:17;;;;;;;;;5.00;2.00;;;;;8.30;69.82;103300.09;5014868;28;47403;-81
2022/01/18 11:04:47;;;;;;;;;0.00;0.00;;;;;7.81;69.07;103198.66;5028316;28;45493;-82
2022/01/18 11:07:45;;;;;;;;;1.00;1.00;;;;;8.49;69.04;103305.56;5023867;28;45423;-80
2022/01/18 11:10:11;;;;;;;;;3.00;1.25;;;;;8.15;68.86;103235.22;5018691;28;45395;-81
2022/01/18 11:13:06;;;;;;;;;2.00;2.00;;;;;8.04;68.61;103199.16;5021784;28;47578;-83
2022/01/18 11:15:36;;;;;;;;;1.00;1.00;;;;;8.43;68.64;103249.81;5026414;28;45501;-83
2022/01/18 11:18:09;;;;;;;;;0.75;0.75;;;;;8.47;68.19;103247.47;5036242;28;44778;-83
2022/01/18 11:20:37;;;;;;;;;2.00;2.00;;;;;8.42;67.96;103227.25;5029643;28;45752;-83
2022/01/18 11:23:06;;;;;;;;;4.00;1.00;;;;;8.76;68.22;103270.75;5040306;28;47045;-81
2022/01/18 11:25:36;;;;;;;;;1.00;1.00;;;;;8.65;67.91;103240.69;5013920;28;45392;-85
2022/01/18 11:28:04;;;;;;;;;2.50;2.50;;;;;8.91;68.67;103268.13;5027926;28;45400;-84
2022/01/18 11:30:32;;;;;;;;;2.25;1.00;;;;;8.59;67.17;103204.88;5033184;28;45655;-83
2022/01/18 11:33:00;;;;;;;;;3.00;0.50;;;;;9.00;67.27;103254.75;5026348;28;46571;-84
2022/01/18 11:35:57;;;;;;;;;1.75;1.75;;;;;8.46;67.21;103160.00;5020903;28;45831;-84
2022/01/18 11:38:45;;;;;;;;;4.50;1.00;;;;;9.05;67.70;103240.31;5016146;28;45522;-84
2022/01/18 11:41:29;;;;;;;;;1.25;0.50;;;;;8.99;67.15;103232.19;5016230;28;45427;-85
2022/01/18 11:44:02;;;;;;;;;2.00;1.25;;;;;8.93;66.61;103224.03;5015426;28;47220;-85
2022/01/18 11:46:52;;;;;;;;;1.75;1.75;;;;;8.41;66.46;103126.81;5011562;28;45817;-84
2022/01/18 11:49:29;;;;;;;;;4.00;2.00;;;;;9.01;66.10;103238.38;5019790;28;45538;-84
2022/01/18 11:52:35;;;;;;;;;3.50;3.50;;;;;8.20;66.08;103091.06;5031867;28;45137;-84
2022/01/18 11:55:24;;;;;;;;;0.00;0.00;;;;;8.86;65.82;103176.06;5033095;28;47328;-85
2022/01/18 11:57:49;;;;;;;;;1.00;1.00;;;;;8.66;65.51;103146.38;5010173;28;45452;-84
2022/01/18 12:00:21;;;;;;;;;1.50;0.50;;;;;8.67;65.80;103145.59;5020666;28;45368;-82
2022/01/18 12:03:01;;;;;;;;;0.50;0.50;;;;;9.13;65.40;103201.78;5021089;28;45657;-85
2022/01/18 12:05:26;;;;;;;;;1.00;1.00;;;;;9.11;65.30;103204.28;5007910;28;47673;-84
2022/01/18 12:08:22;;;;;;;;;2.00;1.00;;;;;8.87;65.66;103155.38;5016000;28;45387;-83
2022/01/18 12:10:53;;;;;;;;;1.00;1.00;;;;;8.39;65.10;103074.81;5002979;28;45475;-83
2022/01/18 12:13:48;;;;;;;;;2.50;1.00;;;;;8.67;65.51;103130.88;5017822;28;45484;-85
2022/01/18 12:16:27;;;;;;;;;0.00;0.00;;;;;8.28;65.90;103055.16;5016432;28;46529;-84
2022/01/18 12:18:59;;;;;;;;;1.50;1.00;;;;;8.64;65.27;103099.59;5019522;28;45524;-82
2022/01/18 12:21:30;;;;;;;;;2.00;1.00;;;;;8.81;65.50;103142.03;5017536;28;45513;-83
2022/01/18 12:23:58;;;;;;;;;1.75;1.75;;;;;8.49;66.18;103078.81;5004899;28;45483;-84
2022/01/18 12:26:42;;;;;;;;;0.00;0.00;;;;;9.09;65.33;103169.53;5010254;28;45534;-84
2022/01/18 12:34:48;;;;;;;;;1.00;1.00;;;;;9.16;65.05;103152.53;5017626;28;45587;-82
2022/01/18 12:37:16;;;;;;;;;1.00;1.00;;;;;9.17;64.81;103148.25;4984349;28;47114;-84
2022/01/18 12:39:52;;;;;;;;;3.25;1.00;;;;;9.18;64.11;103150.94;4983515;28;45511;-87
2022/01/18 12:45:20;;;;;;;;;0.00;0.00;;;;;8.92;64.23;103088.09;4967515;28;45527;-86
2022/01/18 12:47:54;;;;;;;;;0.25;0.25;;;;;9.24;63.37;103139.97;4988991;28;45473;-87
2022/01/18 12:50:36;;;;;;;;;1.25;1.25;;;;;9.31;64.07;103146.38;4990606;28;45492;-84
2022/01/18 12:53:09;;;;;;;;;1.25;1.25;;;;;9.28;63.60;103126.31;4982542;28;45281;-87
2022/01/18 12:55:45;;;;;;;;;3.25;1.50;;;;;9.40;63.53;103127.78;5003442;28;45600;-84
2022/01/18 12:58:20;;;;;;;;;1.00;1.00;;;;;8.93;63.58;103056.09;4982736;28;47234;-85
2022/01/18 13:00:48;;;;;;;;;6.25;3.00;;;;;8.54;63.86;102993.44;4991949;28;45457;-83
2022/01/18 13:03:18;;;;;;;;;1.00;0.50;;;;;9.04;63.70;103093.03;5006549;28;45543;-86
2022/01/18 13:06:03;;;;;;;;;0.00;0.00;;;;;8.47;63.86;102992.16;4983843;28;45530;-83
2022/01/18 13:08:38;;;;;;;;;0.00;0.00;;;;;9.24;64.15;103113.97;5004364;28;46258;-82
2022/01/18 13:11:04;;;;;;;;;1.75;1.75;;;;;9.20;63.71;103101.63;5016007;28;44878;-80
2022/01/18 13:23:11;;;;;;;;;1.25;0.00;;;;;8.22;64.83;102925.97;5003588;28;45469;-82
2022/01/18 13:32:57;;;;;;;;;0.50;0.50;;;;;9.38;63.88;103058.38;4920286;28;45687;-80
2022/01/18 13:35:30;;;;;;;;;2.00;2.00;;;;;9.38;64.24;103049.72;5013909;28;45689;-81
2022/01/18 13:45:17;;;;;;;;;0.75;0.75;;;;;9.25;64.42;103036.06;4969886;28;46875;-81
2022/01/18 13:47:53;;;;;;;;;1.25;1.25;;;;;9.32;64.27;103052.88;4981417;28;45823;-81
2022/01/18 13:50:34;;;;;;;;;2.00;1.00;;;;;8.98;63.85;102997.44;5004131;28;45537;-79
2022/01/18 13:53:02;;;;;;;;;1.00;1.00;;;;;9.18;63.93;103025.28;5000172;28;45536;-80
2022/01/18 13:55:48;;;;;;;;;0.00;0.00;;;;;9.19;64.07;103038.34;5002521;28;45492;-80
2022/01/18 13:58:57;;;;;;;;;3.00;0.25;;;;;9.19;64.06;103040.94;4994690;28;45560;-79
2022/01/18 14:01:44;;;;;;;;;1.00;0.50;;;;;8.81;64.07;102977.50;4982961;28;45378;-80
2022/01/18 14:04:19;;;;;;;;;0.25;0.25;;;;;8.63;64.06;102949.78;4993092;28;45619;-81
2022/01/18 14:06:45;;;;;;;;;3.00;0.00;;;;;8.79;64.15;102972.22;5000584;28;46185;-80
2022/01/18 14:09:42;;;;;;;;;3.25;1.75;;;;;8.31;64.20;102910.91;4999141;28;45379;-81